Marshall, Michigan
Current Conditions -  °F | °C
As of 3:14 PM on Wednesday 28 Jan 2015 (Local Time) from KRMY Reporting Station
Clear Clear  
Wind Chill: 20°   Ceiling: Unl
Heat Index: 29°   Visibility: 10mi
Dew Point:   Wind: 9mph
Humidity: 44%   Direction: 170°S
Pressure: 30.21"   Gusts: NA
Location:  42.28°N, 84.96°W
Report Text: KRMY 282014Z AUTO 17008KT 10SM CLR M02/M13 A3021 RMK AO2 T10191126
Loading
Personal Weather Stations






























Interactive Weather Map New forecast layout! Learn more

10-Day Weather Forecast

Advertisements
Track Severe Weather on mobile